Time;durP1;ratioP1;P1;durP2;ratioP2;P2;SDS_P1;SDS_P2;PMS_P1;PMS_P2;Temp;Humidity;BMP_temperature;BMP_pressure;BME280_temperature;BME280_humidity;BME280_pressure;Samples;Min_cycle;Max_cycle;Signal;HPM_P1;HPM_P2
2023/04/22 00:01:31;;;;;;;8.80;6.80;;;;;;;;;;107916;285;27899;-29
2023/04/22 00:04:07;;;;;;;7.90;6.50;;;;;;;;;;107260;285;896283;-29
2023/04/22 00:06:50;;;;;;;8.70;7.10;;;;;;;;;;107930;285;29220;-29
2023/04/22 00:09:25;;;;;;;8.30;7.10;;;;;;;;;;107888;282;29296;-29
2023/04/22 00:12:00;;;;;;;7.80;6.60;;;;;;;;;;107934;282;27971;-29
2023/04/22 00:14:36;;;;;;;8.50;6.80;;;;;;;;;;107940;285;27320;-29
2023/04/22 00:17:13;;;;;;;8.40;6.80;;;;;;;;;;107939;282;28142;-29
2023/04/22 00:19:48;;;;;;;8.90;7.00;;;;;;;;;;107910;283;28653;-29
2023/04/22 00:22:25;;;;;;;8.20;6.70;;;;;;;;;;107920;282;27947;-29
2023/04/22 00:25:03;;;;;;;8.40;7.00;;;;;;;;;;107896;282;27262;-29
2023/04/22 00:27:37;;;;;;;9.30;7.20;;;;;;;;;;107930;277;28123;-29
2023/04/22 00:30:13;;;;;;;8.40;7.00;;;;;;;;;;107907;285;28650;-29
2023/04/22 00:32:47;;;;;;;8.20;7.00;;;;;;;;;;107913;282;28106;-29
2023/04/22 00:35:23;;;;;;;8.40;6.90;;;;;;;;;;107252;285;894997;-29
2023/04/22 00:38:00;;;;;;;7.80;6.70;;;;;;;;;;107916;277;28016;-29
2023/04/22 00:40:36;;;;;;;7.80;6.60;;;;;;;;;;107901;285;28625;-29
2023/04/22 00:43:14;;;;;;;8.20;6.90;;;;;;;;;;107920;285;27949;-29
2023/04/22 00:45:50;;;;;;;8.10;6.90;;;;;;;;;;107938;285;27051;-29
2023/04/22 00:48:30;;;;;;;8.60;6.60;;;;;;;;;;107925;285;29269;-29
2023/04/22 00:51:06;;;;;;;8.20;6.80;;;;;;;;;;107881;283;28927;-29
2023/04/22 00:53:43;;;;;;;7.80;6.40;;;;;;;;;;107910;285;27913;-29
2023/04/22 00:56:19;;;;;;;8.50;7.10;;;;;;;;;;107914;283;27051;-29
2023/04/22 00:58:53;;;;;;;7.80;6.70;;;;;;;;;;107935;285;28098;-29
2023/04/22 01:01:30;;;;;;;8.30;6.90;;;;;;;;;;107921;285;29932;-29
2023/04/22 01:04:09;;;;;;;8.60;6.60;;;;;;;;;;107738;284;27908;-29
2023/04/22 01:06:44;;;;;;;7.90;6.80;;;;;;;;;;107923;283;27866;-29
2023/04/22 01:09:20;;;;;;;8.20;7.30;;;;;;;;;;107924;285;28400;-29
2023/04/22 01:11:56;;;;;;;9.20;6.80;;;;;;;;;;107879;285;28655;-29
2023/04/22 01:14:34;;;;;;;8.50;7.00;;;;;;;;;;107858;282;27778;-29
2023/04/22 01:17:12;;;;;;;8.20;6.90;;;;;;;;;;107882;285;27356;-29
2023/04/22 01:19:48;;;;;;;8.60;7.20;;;;;;;;;;107913;285;27987;-29
2023/04/22 01:22:24;;;;;;;8.00;6.70;;;;;;;;;;107861;283;34653;-29
2023/04/22 01:25:04;;;;;;;9.50;7.00;;;;;;;;;;107899;285;27740;-29
2023/04/22 01:27:41;;;;;;;8.10;6.80;;;;;;;;;;107898;285;27885;-29
2023/04/22 01:30:16;;;;;;;8.00;6.90;;;;;;;;;;107881;277;28088;-29
2023/04/22 01:32:53;;;;;;;8.30;7.00;;;;;;;;;;107899;284;37478;-29
2023/04/22 01:35:35;;;;;;;8.30;7.00;;;;;;;;;;107916;283;28025;-29
2023/04/22 01:38:14;;;;;;;8.10;7.00;;;;;;;;;;107872;285;27329;-29
2023/04/22 01:40:49;;;;;;;8.30;7.00;;;;;;;;;;107474;285;453228;-29
2023/04/22 01:43:25;;;;;;;8.60;6.90;;;;;;;;;;107861;285;28928;-29
2023/04/22 01:46:02;;;;;;;8.20;7.10;;;;;;;;;;107912;285;28014;-29
2023/04/22 01:48:39;;;;;;;8.90;7.20;;;;;;;;;;107890;285;27401;-29
2023/04/22 01:51:15;;;;;;;8.70;7.30;;;;;;;;;;107882;285;28274;-29
2023/04/22 01:53:49;;;;;;;8.70;7.20;;;;;;;;;;107889;283;28901;-29
2023/04/22 01:56:26;;;;;;;8.70;7.30;;;;;;;;;;107934;283;27900;-29
2023/04/22 01:59:03;;;;;;;8.30;7.10;;;;;;;;;;107944;290;27284;-29
2023/04/22 02:01:39;;;;;;;8.10;6.80;;;;;;;;;;107920;284;28297;-29
2023/04/22 02:04:15;;;;;;;9.00;7.50;;;;;;;;;;107899;285;28845;-29
2023/04/22 02:06:51;;;;;;;8.00;6.90;;;;;;;;;;107922;277;27962;-29
2023/04/22 02:09:26;;;;;;;8.50;7.20;;;;;;;;;;107928;285;27307;-29
2023/04/22 02:12:00;;;;;;;9.30;7.30;;;;;;;;;;107900;285;28098;-29
2023/04/22 02:14:36;;;;;;;7.70;6.90;;;;;;;;;;107910;285;28630;-29
2023/04/22 02:17:11;;;;;;;8.60;6.90;;;;;;;;;;107927;285;27977;-29
2023/04/22 02:19:48;;;;;;;7.80;7.00;;;;;;;;;;107961;285;27080;-29
2023/04/22 02:22:26;;;;;;;8.80;7.30;;;;;;;;;;107892;281;28378;-29
2023/04/22 02:25:02;;;;;;;8.30;7.10;;;;;;;;;;107936;285;28778;-29
2023/04/22 02:27:39;;;;;;;8.40;7.20;;;;;;;;;;107908;285;27874;-29
2023/04/22 02:30:22;;;;;;;9.30;7.10;;;;;;;;;;107912;285;27415;-29
2023/04/22 02:32:58;;;;;;;9.00;7.50;;;;;;;;;;107893;285;28122;-29
2023/04/22 02:35:33;;;;;;;8.30;7.10;;;;;;;;;;107891;285;28718;-29
2023/04/22 02:38:09;;;;;;;8.60;7.10;;;;;;;;;;107928;283;27943;-29
2023/04/22 02:40:50;;;;;;;8.70;7.30;;;;;;;;;;107921;281;27183;-29
2023/04/22 02:43:25;;;;;;;9.10;7.40;;;;;;;;;;107859;282;28242;-29
2023/04/22 02:45:59;;;;;;;8.30;7.30;;;;;;;;;;107917;285;28657;-29
2023/04/22 02:48:36;;;;;;;8.70;7.20;;;;;;;;;;107925;285;27840;-29
2023/04/22 02:51:11;;;;;;;9.10;7.20;;;;;;;;;;107870;285;27430;-29
2023/04/22 02:53:47;;;;;;;8.70;7.00;;;;;;;;;;107823;285;28219;-29
2023/04/22 02:56:23;;;;;;;8.70;7.40;;;;;;;;;;107902;277;28608;-29
2023/04/22 02:58:59;;;;;;;8.40;7.50;;;;;;;;;;107909;282;27998;-29
2023/04/22 03:01:34;;;;;;;8.80;7.50;;;;;;;;;;107918;285;27330;-29
2023/04/22 03:04:10;;;;;;;8.70;7.30;;;;;;;;;;107916;282;28125;-29
2023/04/22 03:06:51;;;;;;;8.50;7.50;;;;;;;;;;107913;285;28626;-29
2023/04/22 03:09:27;;;;;;;8.70;7.80;;;;;;;;;;107893;285;27627;-29
2023/04/22 03:12:04;;;;;;;8.90;7.90;;;;;;;;;;107974;283;26960;-29
2023/04/22 03:14:39;;;;;;;9.00;7.60;;;;;;;;;;108011;285;34131;-29
2023/04/22 03:17:13;;;;;;;8.90;7.70;;;;;;;;;;107925;285;28934;-29
2023/04/22 03:19:47;;;;;;;9.10;7.50;;;;;;;;;;107867;283;27974;-29
2023/04/22 03:22:22;;;;;;;9.30;7.60;;;;;;;;;;107912;285;27324;-29
2023/04/22 03:24:56;;;;;;;9.30;7.30;;;;;;;;;;107886;282;34170;-29
2023/04/22 03:27:30;;;;;;;8.70;7.70;;;;;;;;;;107915;285;28626;-29
2023/04/22 03:30:09;;;;;;;9.50;7.20;;;;;;;;;;107934;285;29027;-29
2023/04/22 03:32:45;;;;;;;9.90;7.90;;;;;;;;;;107982;290;27075;-29
2023/04/22 03:35:19;;;;;;;9.30;7.40;;;;;;;;;;107943;283;28121;-29
2023/04/22 03:37:53;;;;;;;10.10;7.90;;;;;;;;;;107875;285;175764;-29
2023/04/22 03:40:30;;;;;;;10.00;8.00;;;;;;;;;;107974;285;27898;-29
2023/04/22 03:43:04;;;;;;;8.80;7.30;;;;;;;;;;107820;285;175786;-29
2023/04/22 03:45:38;;;;;;;8.90;7.50;;;;;;;;;;107993;286;35719;-29
2023/04/22 03:48:12;;;;;;;9.10;7.50;;;;;;;;;;107983;285;29841;-29
2023/04/22 03:50:48;;;;;;;9.30;7.60;;;;;;;;;;107986;285;29733;-29
2023/04/22 03:53:23;;;;;;;9.30;7.50;;;;;;;;;;107950;285;27298;-29
2023/04/22 03:55:57;;;;;;;8.50;7.20;;;;;;;;;;107965;285;34727;-29
2023/04/22 03:58:34;;;;;;;8.90;7.60;;;;;;;;;;107979;285;28493;-29
2023/04/22 04:01:10;;;;;;;9.20;7.90;;;;;;;;;;107909;285;28009;-29
2023/04/22 04:03:46;;;;;;;9.00;7.50;;;;;;;;;;107972;283;27162;-29
2023/04/22 04:06:25;;;;;;;9.60;7.60;;;;;;;;;;107976;285;34542;-29
2023/04/22 04:09:01;;;;;;;9.10;7.50;;;;;;;;;;107890;285;175672;-29
2023/04/22 04:11:36;;;;;;;9.40;7.80;;;;;;;;;;107988;285;28147;-29
2023/04/22 04:14:14;;;;;;;9.30;7.40;;;;;;;;;;107849;285;175410;-29
2023/04/22 04:16:51;;;;;;;9.60;7.60;;;;;;;;;;107999;282;28245;-29
2023/04/22 04:19:25;;;;;;;9.80;7.80;;;;;;;;;;108008;284;28770;-29
2023/04/22 04:22:00;;;;;;;9.20;7.60;;;;;;;;;;107968;282;28211;-29
2023/04/22 04:24:40;;;;;;;9.80;8.30;;;;;;;;;;107947;282;27187;-29
2023/04/22 04:27:16;;;;;;;10.20;7.70;;;;;;;;;;107994;285;28497;-29
2023/04/22 04:29:51;;;;;;;9.70;7.50;;;;;;;;;;107998;283;28812;-29
2023/04/22 04:32:28;;;;;;;10.20;7.70;;;;;;;;;;108003;282;27706;-29
2023/04/22 04:35:03;;;;;;;9.80;7.80;;;;;;;;;;107977;285;27247;-29
2023/04/22 04:37:39;;;;;;;10.10;8.10;;;;;;;;;;107969;285;28287;-29
2023/04/22 04:40:19;;;;;;;8.90;7.60;;;;;;;;;;107971;282;28940;-29
2023/04/22 04:42:56;;;;;;;9.50;7.70;;;;;;;;;;108016;283;27746;-29
2023/04/22 04:45:30;;;;;;;9.60;7.70;;;;;;;;;;107964;289;27318;-29
2023/04/22 04:48:07;;;;;;;9.90;7.90;;;;;;;;;;107959;285;28249;-29
2023/04/22 04:50:43;;;;;;;9.60;8.00;;;;;;;;;;107988;285;28642;-29
2023/04/22 04:53:17;;;;;;;10.00;7.80;;;;;;;;;;107966;285;28015;-29
2023/04/22 04:55:52;;;;;;;10.00;7.90;;;;;;;;;;107936;283;27206;-29
2023/04/22 04:58:28;;;;;;;9.70;7.60;;;;;;;;;;108015;285;28076;-29
2023/04/22 05:01:04;;;;;;;9.50;7.60;;;;;;;;;;107956;285;28775;-29
2023/04/22 05:03:39;;;;;;;9.90;7.80;;;;;;;;;;107988;283;27883;-29
2023/04/22 05:06:15;;;;;;;10.00;7.80;;;;;;;;;;107941;285;27220;-29
2023/04/22 05:08:50;;;;;;;9.40;7.30;;;;;;;;;;107941;283;30310;-29
2023/04/22 05:11:25;;;;;;;10.60;7.70;;;;;;;;;;108002;285;28818;-29
2023/04/22 05:14:03;;;;;;;9.40;7.50;;;;;;;;;;107958;277;28014;-29
2023/04/22 05:16:39;;;;;;;9.20;7.50;;;;;;;;;;107812;283;175697;-29
2023/04/22 05:19:16;;;;;;;8.40;6.80;;;;;;;;;;108028;285;28218;-29
2023/04/22 05:21:51;;;;;;;8.50;7.30;;;;;;;;;;108007;283;28757;-29
2023/04/22 05:24:25;;;;;;;9.00;7.00;;;;;;;;;;107990;283;29156;-29
2023/04/22 05:27:00;;;;;;;9.50;7.30;;;;;;;;;;107975;283;27354;-29
2023/04/22 05:29:36;;;;;;;9.20;7.00;;;;;;;;;;108012;285;28252;-29
2023/04/22 05:32:12;;;;;;;8.70;7.00;;;;;;;;;;107974;285;28774;-29
2023/04/22 05:34:46;;;;;;;8.80;7.00;;;;;;;;;;107776;286;27897;-29
2023/04/22 05:37:21;;;;;;;9.20;7.50;;;;;;;;;;107930;285;27443;-29
2023/04/22 05:39:57;;;;;;;8.60;6.80;;;;;;;;;;107999;285;28301;-29
2023/04/22 05:42:33;;;;;;;8.30;6.70;;;;;;;;;;108001;285;28749;-29
2023/04/22 05:45:10;;;;;;;8.40;7.00;;;;;;;;;;107980;277;27918;-29
2023/04/22 05:47:47;;;;;;;9.40;7.30;;;;;;;;;;107963;277;27514;-29
2023/04/22 05:50:24;;;;;;;8.70;7.20;;;;;;;;;;107944;283;28346;-29
2023/04/22 05:53:00;;;;;;;8.40;6.80;;;;;;;;;;107937;283;28784;-29
2023/04/22 05:55:35;;;;;;;8.90;6.90;;;;;;;;;;107979;285;27962;-29
2023/04/22 05:58:11;;;;;;;9.20;6.70;;;;;;;;;;107969;285;27342;-29
2023/04/22 06:00:45;;;;;;;8.80;6.30;;;;;;;;;;107979;284;28227;-29
2023/04/22 06:03:21;;;;;;;8.60;6.80;;;;;;;;;;107942;285;28847;-29
2023/04/22 06:05:56;;;;;;;8.40;6.40;;;;;;;;;;107960;285;28070;-29
2023/04/22 06:08:31;;;;;;;8.60;6.50;;;;;;;;;;107977;285;27152;-29
2023/04/22 06:11:07;;;;;;;8.00;6.30;;;;;;;;;;107983;285;28328;-29
2023/04/22 06:13:42;;;;;;;7.50;6.00;;;;;;;;;;107976;285;28800;-29
2023/04/22 06:16:17;;;;;;;9.50;6.20;;;;;;;;;;107979;285;27902;-29
2023/04/22 06:18:54;;;;;;;9.20;6.00;;;;;;;;;;107897;283;33116;-29
2023/04/22 06:21:31;;;;;;;8.50;6.10;;;;;;;;;;107984;277;28147;-29
2023/04/22 06:24:07;;;;;;;8.30;6.40;;;;;;;;;;107903;289;28739;-29
2023/04/22 06:26:41;;;;;;;7.20;5.90;;;;;;;;;;107927;284;27997;-29
2023/04/22 06:29:16;;;;;;;8.00;6.10;;;;;;;;;;107978;283;34741;-29
2023/04/22 06:31:53;;;;;;;8.10;6.10;;;;;;;;;;107986;283;29620;-29
2023/04/22 06:34:30;;;;;;;7.50;5.90;;;;;;;;;;107951;285;28747;-29
2023/04/22 06:37:05;;;;;;;7.70;5.90;;;;;;;;;;107935;285;27903;-29
2023/04/22 06:39:41;;;;;;;7.70;5.90;;;;;;;;;;107966;285;27354;-29
2023/04/22 06:42:17;;;;;;;8.50;5.90;;;;;;;;;;107979;285;28226;-29
2023/04/22 06:44:50;;;;;;;7.30;5.90;;;;;;;;;;107967;285;28698;-29
2023/04/22 06:47:26;;;;;;;7.40;5.90;;;;;;;;;;107932;285;27923;-29
2023/04/22 06:50:02;;;;;;;7.50;5.90;;;;;;;;;;107957;285;27219;-29
2023/04/22 06:52:37;;;;;;;7.50;5.60;;;;;;;;;;107946;285;28108;-29
2023/04/22 06:55:12;;;;;;;8.20;6.10;;;;;;;;;;107969;285;28905;-29
2023/04/22 06:57:54;;;;;;;7.40;5.70;;;;;;;;;;107953;277;27881;-29
2023/04/22 07:00:28;;;;;;;;;;;;;;;;;;107963;290;26942;-29
2023/04/22 07:03:03;;;;;;;6.90;5.40;;;;;;;;;;107945;283;28235;-29
2023/04/22 07:05:38;;;;;;;7.90;5.60;;;;;;;;;;107955;285;28631;-29
2023/04/22 07:08:13;;;;;;;7.80;5.90;;;;;;;;;;107931;277;27885;-29
2023/04/22 07:10:48;;;;;;;7.20;5.60;;;;;;;;;;107898;285;27630;-29
2023/04/22 07:13:23;;;;;;;7.60;5.80;;;;;;;;;;107900;285;28338;-29
2023/04/22 07:15:58;;;;;;;7.20;5.60;;;;;;;;;;107194;277;893961;-29
2023/04/22 07:18:34;;;;;;;7.50;5.50;;;;;;;;;;107890;285;27938;-29
2023/04/22 07:21:10;;;;;;;7.30;5.50;;;;;;;;;;107991;283;27397;-29
2023/04/22 07:23:46;;;;;;;7.30;5.60;;;;;;;;;;107942;283;28108;-29
2023/04/22 07:26:20;;;;;;;7.20;5.50;;;;;;;;;;107961;285;28501;-29
2023/04/22 07:28:59;;;;;;;6.90;5.50;;;;;;;;;;107886;282;28001;-29
2023/04/22 07:31:36;;;;;;;7.30;5.60;;;;;;;;;;107925;277;27291;-29
2023/04/22 07:34:13;;;;;;;8.00;5.80;;;;;;;;;;107923;285;28578;-29
2023/04/22 07:36:52;;;;;;;8.10;5.70;;;;;;;;;;107911;285;28902;-29
2023/04/22 07:39:26;;;;;;;7.50;5.50;;;;;;;;;;107741;284;28082;-29
2023/04/22 07:42:02;;;;;;;8.10;5.80;;;;;;;;;;107952;282;27234;-29
2023/04/22 07:44:38;;;;;;;7.20;5.30;;;;;;;;;;107893;282;29912;-29
2023/04/22 07:47:14;;;;;;;6.90;5.10;;;;;;;;;;107963;277;28394;-29
2023/04/22 07:49:48;;;;;;;7.70;5.30;;;;;;;;;;107917;282;28028;-29
2023/04/22 07:52:23;;;;;;;7.30;5.30;;;;;;;;;;107970;285;27437;-29
2023/04/22 07:54:59;;;;;;;7.00;5.10;;;;;;;;;;107921;282;28122;-29
2023/04/22 07:57:37;;;;;;;7.50;5.70;;;;;;;;;;107957;285;28761;-29
2023/04/22 08:00:14;;;;;;;6.70;5.50;;;;;;;;;;107928;285;28134;-29
2023/04/22 08:02:50;;;;;;;7.10;5.20;;;;;;;;;;107998;283;27324;-29
2023/04/22 08:05:24;;;;;;;6.60;4.90;;;;;;;;;;107922;285;28121;-29
2023/04/22 08:08:04;;;;;;;6.60;5.10;;;;;;;;;;107914;285;28758;-29
2023/04/22 08:10:39;;;;;;;7.40;5.30;;;;;;;;;;107868;285;28116;-29
2023/04/22 08:13:17;;;;;;;7.10;5.50;;;;;;;;;;107933;285;27172;-29
2023/04/22 08:15:51;;;;;;;7.20;5.30;;;;;;;;;;107961;282;28140;-29
2023/04/22 08:18:27;;;;;;;8.00;5.20;;;;;;;;;;107901;285;28627;-29
2023/04/22 08:21:04;;;;;;;7.20;5.30;;;;;;;;;;107894;285;28049;-29
2023/04/22 08:23:40;;;;;;;7.10;5.50;;;;;;;;;;107947;285;27409;-29
2023/04/22 08:26:16;;;;;;;8.20;5.40;;;;;;;;;;107917;283;28126;-29
2023/04/22 08:28:51;;;;;;;7.30;5.30;;;;;;;;;;107925;283;28881;-29
2023/04/22 08:31:30;;;;;;;7.90;5.20;;;;;;;;;;107815;278;175614;-29
2023/04/22 08:34:05;;;;;;;7.00;5.00;;;;;;;;;;107960;285;27735;-29
2023/04/22 08:36:39;;;;;;;7.10;4.90;;;;;;;;;;108001;285;28095;-29
2023/04/22 08:39:14;;;;;;;8.00;5.20;;;;;;;;;;107962;285;28638;-29
2023/04/22 08:41:50;;;;;;;7.10;5.10;;;;;;;;;;107806;285;35114;-29
2023/04/22 08:44:27;;;;;;;7.90;5.10;;;;;;;;;;108002;285;27212;-29
2023/04/22 08:47:01;;;;;;;7.50;5.10;;;;;;;;;;108005;285;28104;-29
2023/04/22 08:49:38;;;;;;;7.60;5.10;;;;;;;;;;107985;285;28644;-29
2023/04/22 08:52:15;;;;;;;8.50;5.20;;;;;;;;;;108014;277;35395;-29
2023/04/22 08:54:49;;;;;;;7.40;5.10;;;;;;;;;;107997;285;27264;-29
2023/04/22 08:57:25;;;;;;;7.70;5.00;;;;;;;;;;107995;285;28120;-29
2023/04/22 09:00:03;;;;;;;7.40;5.20;;;;;;;;;;108009;283;28486;-29
2023/04/22 09:02:38;;;;;;;7.10;5.00;;;;;;;;;;108013;283;34155;-29
2023/04/22 09:05:16;;;;;;;7.00;4.90;;;;;;;;;;108023;285;28302;-29
2023/04/22 09:07:51;;;;;;;7.40;4.70;;;;;;;;;;107984;285;28142;-29
2023/04/22 09:10:25;;;;;;;7.30;5.10;;;;;;;;;;107980;285;29961;-29
2023/04/22 09:13:05;;;;;;;8.10;5.20;;;;;;;;;;107809;287;27832;-29
2023/04/22 09:15:40;;;;;;;8.90;5.40;;;;;;;;;;108019;283;28487;-29
2023/04/22 09:18:20;;;;;;;8.20;4.90;;;;;;;;;;107963;286;28326;-29
2023/04/22 09:20:58;;;;;;;8.30;5.20;;;;;;;;;;107958;283;28615;-29
2023/04/22 09:23:36;;;;;;;7.30;4.90;;;;;;;;;;108041;284;27908;-29
2023/04/22 09:26:13;;;;;;;7.80;5.00;;;;;;;;;;107984;286;27191;-29
2023/04/22 09:28:54;;;;;;;7.10;4.80;;;;;;;;;;108029;283;28147;-29
2023/04/22 09:31:30;;;;;;;7.30;4.70;;;;;;;;;;107846;289;175621;-29
2023/04/22 09:34:05;;;;;;;7.70;5.00;;;;;;;;;;107868;282;29173;-31
2023/04/22 09:36:39;;;;;;;7.90;4.70;;;;;;;;;;107907;283;27413;-30
2023/04/22 09:39:15;;;;;;;7.40;4.80;;;;;;;;;;107589;281;414585;-31
2023/04/22 09:41:58;;;;;;;7.40;4.60;;;;;;;;;;107717;284;28833;-30
2023/04/22 09:44:36;;;;;;;7.20;4.50;;;;;;;;;;107908;285;28130;-30
2023/04/22 09:47:10;;;;;;;6.90;4.40;;;;;;;;;;107919;285;27392;-31
2023/04/22 09:49:49;;;;;;;7.50;4.80;;;;;;;;;;107870;283;28309;-31
2023/04/22 09:52:29;;;;;;;8.00;4.60;;;;;;;;;;107928;285;28872;-31
2023/04/22 09:55:04;;;;;;;8.10;4.80;;;;;;;;;;107887;285;28131;-31
2023/04/22 09:57:42;;;;;;;6.90;4.70;;;;;;;;;;107953;285;27120;-31
2023/04/22 10:00:18;;;;;;;7.90;4.80;;;;;;;;;;107879;285;28303;-31
2023/04/22 10:02:52;;;;;;;7.20;4.60;;;;;;;;;;107862;283;28623;-31
2023/04/22 10:05:28;;;;;;;7.40;4.60;;;;;;;;;;107937;285;28069;-31
2023/04/22 10:08:03;;;;;;;7.60;4.30;;;;;;;;;;107917;285;27442;-31
2023/04/22 10:10:41;;;;;;;6.90;4.30;;;;;;;;;;107915;286;29587;-30
2023/04/22 10:13:16;;;;;;;7.20;4.00;;;;;;;;;;107877;285;29956;-31
2023/04/22 10:15:57;;;;;;;7.10;4.40;;;;;;;;;;107832;283;175228;-31
2023/04/22 10:18:31;;;;;;;;;;;;;;;;;;107850;285;28123;-31
2023/04/22 10:21:09;;;;;;;7.30;4.10;;;;;;;;;;107886;285;28364;-30
2023/04/22 10:23:50;;;;;;;7.70;4.10;;;;;;;;;;107891;283;28735;-30
2023/04/22 10:26:48;;;;;;;7.00;4.10;;;;;;;;;;107880;285;29206;-30
2023/04/22 10:29:26;;;;;;;7.10;4.00;;;;;;;;;;107917;282;27560;-31
2023/04/22 10:32:23;;;;;;;6.20;4.20;;;;;;;;;;107883;285;28333;-31
2023/04/22 10:35:15;;;;;;;7.60;4.00;;;;;;;;;;107908;285;28818;-31
2023/04/22 10:37:54;;;;;;;7.30;4.20;;;;;;;;;;107782;285;175593;-31
2023/04/22 10:40:29;;;;;;;6.60;4.00;;;;;;;;;;107904;285;27991;-31
2023/04/22 10:43:05;;;;;;;8.00;4.00;;;;;;;;;;107812;285;28335;-31
2023/04/22 10:45:44;;;;;;;6.50;3.90;;;;;;;;;;107850;285;28979;-31
2023/04/22 10:48:51;;;;;;;6.40;3.80;;;;;;;;;;107752;285;175135;-31
2023/04/22 10:51:43;;;;;;;7.10;3.70;;;;;;;;;;107930;282;28175;-31
2023/04/22 10:54:53;;;;;;;;;;;;;;;;;;107795;282;175506;-31
2023/04/22 10:57:36;;;;;;;6.00;3.60;;;;;;;;;;107888;285;28604;-31
2023/04/22 11:00:42;;;;;;;6.80;4.00;;;;;;;;;;107849;283;28246;-31
2023/04/22 11:03:31;;;;;;;6.80;3.70;;;;;;;;;;107853;285;27425;-31
2023/04/22 11:06:29;;;;;;;6.20;3.50;;;;;;;;;;107919;283;29440;-31
2023/04/22 11:09:15;;;;;;;6.60;3.60;;;;;;;;;;107889;283;30990;-31
2023/04/22 11:11:53;;;;;;;7.50;4.00;;;;;;;;;;107942;285;28290;-31
2023/04/22 11:14:27;;;;;;;6.20;3.20;;;;;;;;;;107849;285;27948;-31
2023/04/22 11:17:02;;;;;;;6.20;3.40;;;;;;;;;;107917;285;29394;-31
2023/04/22 11:19:38;;;;;;;6.20;3.50;;;;;;;;;;107831;285;175508;-31
2023/04/22 11:22:18;;;;;;;6.10;3.40;;;;;;;;;;107933;285;28092;-31
2023/04/22 11:24:58;;;;;;;6.30;3.60;;;;;;;;;;107880;285;27487;-31
2023/04/22 11:27:32;;;;;;;5.70;3.40;;;;;;;;;;107931;285;30473;-31
2023/04/22 11:30:09;;;;;;;5.30;3.20;;;;;;;;;;107882;285;28758;-31
2023/04/22 11:32:48;;;;;;;6.10;3.20;;;;;;;;;;107956;285;28076;-31
2023/04/22 11:35:25;;;;;;;5.60;3.20;;;;;;;;;;107868;285;27410;-31
2023/04/22 11:38:02;;;;;;;5.90;3.30;;;;;;;;;;107911;290;28472;-31
2023/04/22 11:40:39;;;;;;;5.30;2.90;;;;;;;;;;107930;283;28624;-31
2023/04/22 11:43:18;;;;;;;6.00;3.20;;;;;;;;;;107890;286;28189;-31
2023/04/22 11:45:55;;;;;;;5.50;2.80;;;;;;;;;;107882;286;34993;-31
2023/04/22 11:48:29;;;;;;;5.50;3.10;;;;;;;;;;107859;286;28343;-31
2023/04/22 11:51:17;;;;;;;5.20;3.00;;;;;;;;;;107898;283;28928;-31
2023/04/22 11:53:57;;;;;;;5.40;2.80;;;;;;;;;;107891;285;29198;-31
2023/04/22 11:56:31;;;;;;;4.80;2.60;;;;;;;;;;107900;285;27477;-31
2023/04/22 11:59:10;;;;;;;5.60;3.00;;;;;;;;;;107880;285;28325;-31
2023/04/22 12:01:48;;;;;;;5.20;2.90;;;;;;;;;;107900;285;28925;-31
2023/04/22 12:04:24;;;;;;;5.90;3.00;;;;;;;;;;107831;285;28088;-31
2023/04/22 12:06:59;;;;;;;5.00;2.90;;;;;;;;;;107886;286;27415;-31
2023/04/22 12:09:32;;;;;;;5.50;2.80;;;;;;;;;;107864;283;28322;-31
2023/04/22 12:12:09;;;;;;;5.50;3.00;;;;;;;;;;107849;285;28871;-31
2023/04/22 12:14:48;;;;;;;5.60;3.20;;;;;;;;;;107807;283;28581;-31
2023/04/22 12:17:25;;;;;;;6.60;4.00;;;;;;;;;;107863;285;29653;-31
2023/04/22 12:20:02;;;;;;;6.20;3.70;;;;;;;;;;107838;285;28091;-31
2023/04/22 12:22:38;;;;;;;5.30;3.20;;;;;;;;;;107845;285;28873;-31
2023/04/22 12:25:17;;;;;;;6.10;3.70;;;;;;;;;;107720;285;175201;-31
2023/04/22 12:27:54;;;;;;;5.30;3.40;;;;;;;;;;107869;285;27330;-31
2023/04/22 12:30:31;;;;;;;6.20;3.70;;;;;;;;;;107859;286;28321;-31
2023/04/22 12:33:05;;;;;;;5.60;3.60;;;;;;;;;;107870;283;28642;-31
2023/04/22 12:35:42;;;;;;;6.10;3.60;;;;;;;;;;107826;285;27835;-31
2023/04/22 12:38:15;;;;;;;6.20;3.50;;;;;;;;;;107738;277;175182;-31
2023/04/22 12:40:52;;;;;;;6.10;3.70;;;;;;;;;;107845;283;28290;-31
2023/04/22 12:43:26;;;;;;;5.60;3.40;;;;;;;;;;107888;285;29007;-31
2023/04/22 12:46:00;;;;;;;5.60;3.80;;;;;;;;;;107759;285;175495;-31
2023/04/22 12:48:36;;;;;;;5.50;3.50;;;;;;;;;;107911;283;27400;-31
2023/04/22 12:51:10;;;;;;;5.90;3.50;;;;;;;;;;107924;285;28248;-31
2023/04/22 12:53:46;;;;;;;5.50;3.30;;;;;;;;;;107907;283;28843;-31
2023/04/22 12:56:24;;;;;;;6.10;3.50;;;;;;;;;;107869;283;28094;-31
2023/04/22 12:59:02;;;;;;;5.60;3.50;;;;;;;;;;107888;283;27415;-31
2023/04/22 13:01:37;;;;;;;6.00;3.50;;;;;;;;;;107910;285;28446;-31
2023/04/22 13:04:12;;;;;;;5.50;3.40;;;;;;;;;;107913;284;29669;-31
2023/04/22 13:06:55;;;;;;;6.00;3.40;;;;;;;;;;107877;283;29942;-31
2023/04/22 13:09:30;;;;;;;5.40;3.70;;;;;;;;;;107793;283;175595;-31
2023/04/22 13:12:07;;;;;;;6.00;3.50;;;;;;;;;;107887;285;28328;-31
2023/04/22 13:14:44;;;;;;;6.10;3.70;;;;;;;;;;107913;285;28832;-31
2023/04/22 13:17:20;;;;;;;6.50;4.20;;;;;;;;;;107872;286;28136;-31
2023/04/22 13:19:57;;;;;;;6.00;3.70;;;;;;;;;;107892;285;27595;-31
2023/04/22 13:22:33;;;;;;;6.30;3.70;;;;;;;;;;107911;285;28316;-31
2023/04/22 13:25:09;;;;;;;7.10;4.00;;;;;;;;;;107926;286;28957;-31
2023/04/22 13:27:46;;;;;;;6.90;3.50;;;;;;;;;;107998;285;34039;-31
2023/04/22 13:30:24;;;;;;;6.90;4.30;;;;;;;;;;107916;285;27171;-31
2023/04/22 13:33:00;;;;;;;6.10;4.10;;;;;;;;;;107891;283;28484;-31
2023/04/22 13:35:34;;;;;;;6.20;4.00;;;;;;;;;;107909;285;28939;-31
2023/04/22 13:38:11;;;;;;;6.90;4.10;;;;;;;;;;107911;285;35018;-31
2023/04/22 13:40:47;;;;;;;6.50;3.70;;;;;;;;;;107903;285;27507;-31
2023/04/22 13:43:22;;;;;;;6.50;3.80;;;;;;;;;;107858;285;28433;-31
2023/04/22 13:45:56;;;;;;;5.80;3.60;;;;;;;;;;107814;283;28974;-31
2023/04/22 13:48:32;;;;;;;6.90;4.10;;;;;;;;;;107792;285;27722;-31
2023/04/22 13:51:07;;;;;;;6.80;4.20;;;;;;;;;;107806;283;27412;-32
2023/04/22 13:53:42;;;;;;;7.30;4.50;;;;;;;;;;107860;283;28306;-32
2023/04/22 13:56:15;;;;;;;7.90;4.10;;;;;;;;;;107799;283;28822;-31
2023/04/22 13:58:49;;;;;;;6.40;4.20;;;;;;;;;;107863;283;28211;-30
2023/04/22 14:01:23;;;;;;;6.80;4.30;;;;;;;;;;107864;285;27385;-31
2023/04/22 14:03:57;;;;;;;7.60;4.40;;;;;;;;;;107890;285;28353;-31
2023/04/22 14:06:31;;;;;;;6.90;4.30;;;;;;;;;;107769;286;28824;-32
2023/04/22 14:09:05;;;;;;;7.20;4.30;;;;;;;;;;107856;277;28006;-32
2023/04/22 14:11:41;;;;;;;6.90;4.50;;;;;;;;;;107880;281;27441;-31
2023/04/22 14:14:19;;;;;;;6.90;4.30;;;;;;;;;;107872;286;28311;-31
2023/04/22 14:16:56;;;;;;;6.10;4.20;;;;;;;;;;107809;285;28848;-31
2023/04/22 14:19:32;;;;;;;6.60;4.20;;;;;;;;;;107830;285;28093;-31
2023/04/22 14:22:09;;;;;;;7.80;4.50;;;;;;;;;;107835;285;27431;-31
2023/04/22 14:24:46;;;;;;;7.80;4.50;;;;;;;;;;107812;285;28291;-31
2023/04/22 14:27:23;;;;;;;7.20;4.40;;;;;;;;;;107813;283;28779;-31
2023/04/22 14:30:00;;;;;;;6.60;4.20;;;;;;;;;;107791;285;27835;-31
2023/04/22 14:32:34;;;;;;;7.00;4.00;;;;;;;;;;107840;285;27422;-32
2023/04/22 14:35:11;;;;;;;6.50;3.90;;;;;;;;;;107850;283;28442;-31
2023/04/22 14:37:47;;;;;;;7.80;4.10;;;;;;;;;;107815;285;29990;-31
2023/04/22 14:40:24;;;;;;;5.80;3.60;;;;;;;;;;107842;286;28084;-32
2023/04/22 14:43:01;;;;;;;6.10;3.80;;;;;;;;;;107803;286;27403;-32
2023/04/22 14:45:36;;;;;;;7.00;4.00;;;;;;;;;;107758;283;28282;-32
2023/04/22 14:48:10;;;;;;;7.80;4.00;;;;;;;;;;107737;285;28748;-31
2023/04/22 14:50:45;;;;;;;6.30;3.90;;;;;;;;;;107768;285;28097;-31
2023/04/22 14:53:21;;;;;;;6.60;3.80;;;;;;;;;;107808;285;27493;-33
2023/04/22 14:55:55;;;;;;;6.30;3.70;;;;;;;;;;107685;283;181444;-31
2023/04/22 14:58:31;;;;;;;6.00;3.40;;;;;;;;;;107791;286;28824;-31
2023/04/22 15:01:08;;;;;;;5.60;3.60;;;;;;;;;;107819;285;28086;-31
2023/04/22 15:03:45;;;;;;;6.10;3.60;;;;;;;;;;107814;285;27651;-31
2023/04/22 15:06:23;;;;;;;6.90;4.30;;;;;;;;;;107687;286;175554;-31
2023/04/22 15:08:59;;;;;;;5.80;3.10;;;;;;;;;;107772;283;28938;-31
2023/04/22 15:11:33;;;;;;;5.80;3.80;;;;;;;;;;107809;283;28021;-31
2023/04/22 15:14:09;;;;;;;5.80;3.30;;;;;;;;;;107833;285;27476;-31
2023/04/22 15:16:46;;;;;;;5.60;3.30;;;;;;;;;;107826;283;29428;-31
2023/04/22 15:19:21;;;;;;;6.00;3.40;;;;;;;;;;107800;285;28981;-31
2023/04/22 15:21:56;;;;;;;5.60;3.20;;;;;;;;;;107848;285;28175;-31
2023/04/22 15:24:32;;;;;;;5.50;3.10;;;;;;;;;;107820;283;27511;-31
2023/04/22 15:27:09;;;;;;;5.30;3.40;;;;;;;;;;107866;286;28350;-31
2023/04/22 15:29:46;;;;;;;5.30;3.00;;;;;;;;;;107797;285;29139;-31
2023/04/22 15:32:21;;;;;;;5.70;3.30;;;;;;;;;;107726;285;175499;-31
2023/04/22 15:34:57;;;;;;;5.40;3.20;;;;;;;;;;107838;285;27503;-32
2023/04/22 15:37:35;;;;;;;5.20;3.00;;;;;;;;;;107824;285;28218;-32
2023/04/22 15:40:11;;;;;;;5.50;3.20;;;;;;;;;;107695;285;181911;-31